sensor_id;sensor_type;location;lat;lon;timestamp;P1;durP1;ratioP1;P2;durP2;ratioP2
75700;SDS011;64321;48.796;44.740;2023-08-31T00:02:25;11.98;;;4.82;;
75700;SDS011;64321;48.796;44.740;2023-08-31T00:07:27;16.67;;;5.03;;
75700;SDS011;64321;48.796;44.740;2023-08-31T00:12:29;13.98;;;4.78;;
75700;SDS011;64321;48.796;44.740;2023-08-31T00:17:32;15.48;;;5.45;;
75700;SDS011;64321;48.796;44.740;2023-08-31T00:22:34;13.55;;;5.57;;
75700;SDS011;64321;48.796;44.740;2023-08-31T00:27:36;12.75;;;5.50;;
75700;SDS011;64321;48.796;44.740;2023-08-31T00:32:42;15.75;;;6.13;;
75700;SDS011;64321;48.796;44.740;2023-08-31T00:37:45;15.85;;;5.70;;
75700;SDS011;64321;48.796;44.740;2023-08-31T00:42:48;14.00;;;5.68;;
75700;SDS011;64321;48.796;44.740;2023-08-31T00:47:50;21.80;;;6.95;;
75700;SDS011;64321;48.796;44.740;2023-08-31T00:52:54;20.70;;;5.78;;
75700;SDS011;64321;48.796;44.740;2023-08-31T00:57:56;11.80;;;4.88;;
75700;SDS011;64321;48.796;44.740;2023-08-31T01:03:01;16.42;;;6.28;;
75700;SDS011;64321;48.796;44.740;2023-08-31T01:13:14;13.10;;;5.78;;
75700;SDS011;64321;48.796;44.740;2023-08-31T01:18:17;14.43;;;5.20;;
75700;SDS011;64321;48.796;44.740;2023-08-31T01:23:21;12.88;;;4.68;;
75700;SDS011;64321;48.796;44.740;2023-08-31T01:28:23;13.95;;;4.20;;
75700;SDS011;64321;48.796;44.740;2023-08-31T01:39:35;13.05;;;5.18;;
75700;SDS011;64321;48.796;44.740;2023-08-31T01:44:41;11.23;;;4.55;;
75700;SDS011;64321;48.796;44.740;2023-08-31T01:49:43;10.57;;;3.85;;
75700;SDS011;64321;48.796;44.740;2023-08-31T01:54:45;8.52;;;2.47;;
75700;SDS011;64321;48.796;44.740;2023-08-31T01:59:48;7.45;;;2.60;;
75700;SDS011;64321;48.796;44.740;2023-08-31T02:04:50;6.38;;;2.20;;
75700;SDS011;64321;48.796;44.740;2023-08-31T02:09:53;4.82;;;1.63;;
75700;SDS011;64321;48.796;44.740;2023-08-31T02:14:55;6.68;;;1.80;;
75700;SDS011;64321;48.796;44.740;2023-08-31T02:19:57;5.07;;;1.90;;
75700;SDS011;64321;48.796;44.740;2023-08-31T02:24:59;4.68;;;1.60;;
75700;SDS011;64321;48.796;44.740;2023-08-31T02:30:04;5.03;;;1.92;;
75700;SDS011;64321;48.796;44.740;2023-08-31T02:35:08;8.15;;;2.00;;
75700;SDS011;64321;48.796;44.740;2023-08-31T02:40:11;7.72;;;3.30;;
75700;SDS011;64321;48.796;44.740;2023-08-31T02:45:14;6.20;;;2.55;;
75700;SDS011;64321;48.796;44.740;2023-08-31T02:50:18;8.63;;;2.17;;
75700;SDS011;64321;48.796;44.740;2023-08-31T02:55:20;5.88;;;2.08;;
75700;SDS011;64321;48.796;44.740;2023-08-31T03:00:23;6.20;;;1.85;;
75700;SDS011;64321;48.796;44.740;2023-08-31T03:05:25;5.38;;;1.52;;
75700;SDS011;64321;48.796;44.740;2023-08-31T03:10:27;9.02;;;1.90;;
75700;SDS011;64321;48.796;44.740;2023-08-31T03:15:32;5.53;;;1.75;;
75700;SDS011;64321;48.796;44.740;2023-08-31T03:20:34;7.60;;;1.42;;
75700;SDS011;64321;48.796;44.740;2023-08-31T03:25:36;8.07;;;1.33;;
75700;SDS011;64321;48.796;44.740;2023-08-31T03:30:38;4.93;;;1.05;;
75700;SDS011;64321;48.796;44.740;2023-08-31T03:35:41;6.07;;;1.63;;
75700;SDS011;64321;48.796;44.740;2023-08-31T03:40:51;5.30;;;1.50;;
75700;SDS011;64321;48.796;44.740;2023-08-31T03:45:56;7.10;;;2.05;;
75700;SDS011;64321;48.796;44.740;2023-08-31T03:50:59;5.88;;;2.03;;
75700;SDS011;64321;48.796;44.740;2023-08-31T03:56:01;10.25;;;2.85;;
75700;SDS011;64321;48.796;44.740;2023-08-31T04:01:04;13.82;;;3.28;;
75700;SDS011;64321;48.796;44.740;2023-08-31T04:06:07;11.55;;;3.78;;
75700;SDS011;64321;48.796;44.740;2023-08-31T04:11:09;11.75;;;3.40;;
75700;SDS011;64321;48.796;44.740;2023-08-31T04:16:11;8.05;;;3.30;;
75700;SDS011;64321;48.796;44.740;2023-08-31T04:21:14;8.85;;;2.97;;
75700;SDS011;64321;48.796;44.740;2023-08-31T04:26:16;9.32;;;3.13;;
75700;SDS011;64321;48.796;44.740;2023-08-31T04:31:19;10.88;;;3.17;;
75700;SDS011;64321;48.796;44.740;2023-08-31T04:36:21;13.15;;;3.90;;
75700;SDS011;64321;48.796;44.740;2023-08-31T04:41:23;12.15;;;4.43;;
75700;SDS011;64321;48.796;44.740;2023-08-31T04:46:25;14.55;;;4.72;;
75700;SDS011;64321;48.796;44.740;2023-08-31T04:51:28;13.80;;;4.38;;
75700;SDS011;64321;48.796;44.740;2023-08-31T04:56:31;16.38;;;4.18;;
75700;SDS011;64321;48.796;44.740;2023-08-31T05:01:36;9.77;;;3.67;;
75700;SDS011;64321;48.796;44.740;2023-08-31T05:06:38;9.95;;;4.78;;
75700;SDS011;64321;48.796;44.740;2023-08-31T05:11:40;16.85;;;3.95;;
75700;SDS011;64321;48.796;44.740;2023-08-31T05:16:42;13.85;;;4.70;;
75700;SDS011;64321;48.796;44.740;2023-08-31T05:21:44;17.35;;;5.18;;
75700;SDS011;64321;48.796;44.740;2023-08-31T05:26:46;17.70;;;6.25;;
75700;SDS011;64321;48.796;44.740;2023-08-31T05:31:48;17.67;;;6.18;;
75700;SDS011;64321;48.796;44.740;2023-08-31T05:36:51;17.67;;;6.18;;
75700;SDS011;64321;48.796;44.740;2023-08-31T05:41:53;16.92;;;6.30;;
75700;SDS011;64321;48.796;44.740;2023-08-31T05:46:55;15.82;;;5.22;;
75700;SDS011;64321;48.796;44.740;2023-08-31T05:51:57;17.23;;;5.70;;
75700;SDS011;64321;48.796;44.740;2023-08-31T05:56:59;16.98;;;5.72;;
75700;SDS011;64321;48.796;44.740;2023-08-31T06:02:01;24.60;;;6.82;;
75700;SDS011;64321;48.796;44.740;2023-08-31T06:07:06;23.20;;;6.35;;
75700;SDS011;64321;48.796;44.740;2023-08-31T06:12:08;19.63;;;6.57;;
75700;SDS011;64321;48.796;44.740;2023-08-31T06:17:10;26.77;;;7.22;;
75700;SDS011;64321;48.796;44.740;2023-08-31T06:22:14;21.00;;;7.60;;
75700;SDS011;64321;48.796;44.740;2023-08-31T06:27:17;25.80;;;6.93;;
75700;SDS011;64321;48.796;44.740;2023-08-31T06:32:19;24.23;;;7.50;;
75700;SDS011;64321;48.796;44.740;2023-08-31T06:37:21;24.00;;;6.97;;
75700;SDS011;64321;48.796;44.740;2023-08-31T06:42:23;21.90;;;7.03;;
75700;SDS011;64321;48.796;44.740;2023-08-31T06:47:28;17.92;;;6.15;;
75700;SDS011;64321;48.796;44.740;2023-08-31T06:52:30;24.48;;;7.20;;
75700;SDS011;64321;48.796;44.740;2023-08-31T06:57:33;16.85;;;5.22;;
75700;SDS011;64321;48.796;44.740;2023-08-31T07:02:36;18.98;;;7.10;;
75700;SDS011;64321;48.796;44.740;2023-08-31T07:07:39;24.42;;;8.60;;
75700;SDS011;64321;48.796;44.740;2023-08-31T07:12:41;21.42;;;7.78;;
75700;SDS011;64321;48.796;44.740;2023-08-31T07:17:43;21.88;;;7.93;;
75700;SDS011;64321;48.796;44.740;2023-08-31T07:22:45;18.58;;;6.97;;
75700;SDS011;64321;48.796;44.740;2023-08-31T07:27:47;16.40;;;5.90;;
75700;SDS011;64321;48.796;44.740;2023-08-31T07:32:49;16.70;;;6.25;;
75700;SDS011;64321;48.796;44.740;2023-08-31T07:37:51;11.00;;;4.55;;
75700;SDS011;64321;48.796;44.740;2023-08-31T07:42:54;18.55;;;5.88;;
75700;SDS011;64321;48.796;44.740;2023-08-31T07:47:56;20.33;;;5.88;;
75700;SDS011;64321;48.796;44.740;2023-08-31T07:52:58;9.70;;;2.75;;
75700;SDS011;64321;48.796;44.740;2023-08-31T07:58:00;15.32;;;4.88;;
75700;SDS011;64321;48.796;44.740;2023-08-31T08:03:03;16.38;;;4.53;;
75700;SDS011;64321;48.796;44.740;2023-08-31T08:08:05;12.80;;;3.65;;
75700;SDS011;64321;48.796;44.740;2023-08-31T08:13:07;9.57;;;3.38;;
75700;SDS011;64321;48.796;44.740;2023-08-31T08:18:10;6.00;;;2.40;;
75700;SDS011;64321;48.796;44.740;2023-08-31T08:23:12;9.32;;;2.80;;
75700;SDS011;64321;48.796;44.740;2023-08-31T08:28:14;12.20;;;2.15;;
75700;SDS011;64321;48.796;44.740;2023-08-31T08:33:16;8.90;;;2.08;;
75700;SDS011;64321;48.796;44.740;2023-08-31T08:38:18;14.50;;;3.20;;
75700;SDS011;64321;48.796;44.740;2023-08-31T08:43:25;12.98;;;2.75;;
75700;SDS011;64321;48.796;44.740;2023-08-31T08:48:28;7.43;;;2.05;;
75700;SDS011;64321;48.796;44.740;2023-08-31T08:53:30;8.40;;;2.30;;
75700;SDS011;64321;48.796;44.740;2023-08-31T08:58:32;10.40;;;2.13;;
75700;SDS011;64321;48.796;44.740;2023-08-31T09:03:35;7.68;;;2.15;;
75700;SDS011;64321;48.796;44.740;2023-08-31T09:08:37;7.10;;;2.10;;
75700;SDS011;64321;48.796;44.740;2023-08-31T09:13:42;6.28;;;1.60;;
75700;SDS011;64321;48.796;44.740;2023-08-31T09:18:44;7.25;;;1.80;;
75700;SDS011;64321;48.796;44.740;2023-08-31T09:23:47;5.55;;;1.77;;
75700;SDS011;64321;48.796;44.740;2023-08-31T09:28:49;5.72;;;2.03;;
75700;SDS011;64321;48.796;44.740;2023-08-31T09:33:54;6.20;;;1.60;;
75700;SDS011;64321;48.796;44.740;2023-08-31T09:38:57;6.47;;;1.55;;
75700;SDS011;64321;48.796;44.740;2023-08-31T09:44:15;5.22;;;1.70;;
75700;SDS011;64321;48.796;44.740;2023-08-31T09:49:21;8.02;;;1.83;;
75700;SDS011;64321;48.796;44.740;2023-08-31T09:54:24;6.30;;;2.00;;
75700;SDS011;64321;48.796;44.740;2023-08-31T09:59:28;6.15;;;1.73;;
75700;SDS011;64321;48.796;44.740;2023-08-31T10:04:30;5.47;;;1.80;;
75700;SDS011;64321;48.796;44.740;2023-08-31T10:09:35;9.88;;;3.03;;
75700;SDS011;64321;48.796;44.740;2023-08-31T10:14:37;7.00;;;2.63;;
75700;SDS011;64321;48.796;44.740;2023-08-31T10:19:39;7.20;;;2.67;;
75700;SDS011;64321;48.796;44.740;2023-08-31T10:35:22;10.18;;;1.90;;
75700;SDS011;64321;48.796;44.740;2023-08-31T10:40:42;6.00;;;2.03;;
75700;SDS011;64321;48.796;44.740;2023-08-31T10:46:01;5.63;;;1.77;;
75700;SDS011;64321;48.796;44.740;2023-08-31T10:51:05;8.07;;;1.90;;
75700;SDS011;64321;48.796;44.740;2023-08-31T10:56:07;4.05;;;1.23;;
75700;SDS011;64321;48.796;44.740;2023-08-31T11:01:09;4.28;;;1.67;;
75700;SDS011;64321;48.796;44.740;2023-08-31T11:06:11;5.03;;;1.85;;
75700;SDS011;64321;48.796;44.740;2023-08-31T11:11:14;6.13;;;1.98;;
75700;SDS011;64321;48.796;44.740;2023-08-31T11:16:21;7.13;;;2.00;;
75700;SDS011;64321;48.796;44.740;2023-08-31T11:21:23;6.53;;;1.73;;
75700;SDS011;64321;48.796;44.740;2023-08-31T11:26:25;7.00;;;1.65;;
75700;SDS011;64321;48.796;44.740;2023-08-31T11:31:28;8.77;;;1.75;;
75700;SDS011;64321;48.796;44.740;2023-08-31T11:36:30;5.68;;;1.70;;
75700;SDS011;64321;48.796;44.740;2023-08-31T11:41:33;6.03;;;1.80;;
75700;SDS011;64321;48.796;44.740;2023-08-31T11:46:37;6.40;;;1.67;;
75700;SDS011;64321;48.796;44.740;2023-08-31T11:51:40;9.48;;;2.45;;
75700;SDS011;64321;48.796;44.740;2023-08-31T11:56:43;6.32;;;1.83;;
75700;SDS011;64321;48.796;44.740;2023-08-31T12:01:46;8.23;;;2.22;;
75700;SDS011;64321;48.796;44.740;2023-08-31T12:06:50;3.97;;;1.40;;
75700;SDS011;64321;48.796;44.740;2023-08-31T12:11:53;4.30;;;1.63;;
75700;SDS011;64321;48.796;44.740;2023-08-31T12:17:02;7.28;;;1.80;;
75700;SDS011;64321;48.796;44.740;2023-08-31T12:22:05;4.10;;;1.52;;
75700;SDS011;64321;48.796;44.740;2023-08-31T12:27:11;8.20;;;2.22;;
75700;SDS011;64321;48.796;44.740;2023-08-31T12:32:18;7.82;;;2.28;;
75700;SDS011;64321;48.796;44.740;2023-08-31T12:37:20;7.65;;;2.33;;
75700;SDS011;64321;48.796;44.740;2023-08-31T12:42:22;6.10;;;2.22;;
75700;SDS011;64321;48.796;44.740;2023-08-31T12:47:25;5.57;;;1.90;;
75700;SDS011;64321;48.796;44.740;2023-08-31T12:52:27;8.45;;;2.03;;
75700;SDS011;64321;48.796;44.740;2023-08-31T12:57:29;4.90;;;2.03;;
75700;SDS011;64321;48.796;44.740;2023-08-31T13:02:31;7.80;;;1.95;;
75700;SDS011;64321;48.796;44.740;2023-08-31T13:07:34;6.63;;;1.95;;
75700;SDS011;64321;48.796;44.740;2023-08-31T13:12:37;6.32;;;1.90;;
75700;SDS011;64321;48.796;44.740;2023-08-31T13:17:39;7.53;;;1.80;;
75700;SDS011;64321;48.796;44.740;2023-08-31T13:22:42;7.90;;;1.63;;
75700;SDS011;64321;48.796;44.740;2023-08-31T13:27:44;8.43;;;1.50;;
75700;SDS011;64321;48.796;44.740;2023-08-31T13:32:46;8.23;;;1.85;;
75700;SDS011;64321;48.796;44.740;2023-08-31T13:37:48;7.18;;;1.98;;
75700;SDS011;64321;48.796;44.740;2023-08-31T13:42:54;6.05;;;1.50;;
75700;SDS011;64321;48.796;44.740;2023-08-31T13:47:58;6.28;;;1.85;;
75700;SDS011;64321;48.796;44.740;2023-08-31T13:53:02;6.60;;;1.80;;
75700;SDS011;64321;48.796;44.740;2023-08-31T13:58:05;4.80;;;1.45;;
75700;SDS011;64321;48.796;44.740;2023-08-31T14:03:10;5.80;;;1.88;;
75700;SDS011;64321;48.796;44.740;2023-08-31T14:08:13;9.65;;;2.35;;
75700;SDS011;64321;48.796;44.740;2023-08-31T14:13:16;6.07;;;1.48;;
75700;SDS011;64321;48.796;44.740;2023-08-31T14:18:18;7.47;;;2.25;;
75700;SDS011;64321;48.796;44.740;2023-08-31T14:23:20;6.28;;;2.03;;
75700;SDS011;64321;48.796;44.740;2023-08-31T14:28:22;6.57;;;2.22;;
75700;SDS011;64321;48.796;44.740;2023-08-31T14:33:24;6.43;;;1.73;;
75700;SDS011;64321;48.796;44.740;2023-08-31T14:38:26;7.03;;;2.20;;
75700;SDS011;64321;48.796;44.740;2023-08-31T14:43:30;7.55;;;2.10;;
75700;SDS011;64321;48.796;44.740;2023-08-31T14:48:32;7.82;;;2.13;;
75700;SDS011;64321;48.796;44.740;2023-08-31T14:53:35;9.23;;;2.67;;
75700;SDS011;64321;48.796;44.740;2023-08-31T14:58:37;5.85;;;2.20;;
75700;SDS011;64321;48.796;44.740;2023-08-31T15:03:39;9.07;;;2.10;;
75700;SDS011;64321;48.796;44.740;2023-08-31T15:08:41;9.80;;;2.80;;
75700;SDS011;64321;48.796;44.740;2023-08-31T15:13:44;8.20;;;2.42;;
75700;SDS011;64321;48.796;44.740;2023-08-31T15:18:46;11.68;;;2.35;;
75700;SDS011;64321;48.796;44.740;2023-08-31T15:23:49;9.20;;;2.53;;
75700;SDS011;64321;48.796;44.740;2023-08-31T15:28:52;9.50;;;3.15;;
75700;SDS011;64321;48.796;44.740;2023-08-31T15:33:54;8.98;;;2.13;;
75700;SDS011;64321;48.796;44.740;2023-08-31T15:38:56;7.47;;;2.38;;
75700;SDS011;64321;48.796;44.740;2023-08-31T15:43:58;9.25;;;2.80;;
75700;SDS011;64321;48.796;44.740;2023-08-31T15:49:01;8.50;;;2.67;;
75700;SDS011;64321;48.796;44.740;2023-08-31T15:54:04;14.43;;;3.63;;
75700;SDS011;64321;48.796;44.740;2023-08-31T15:59:07;13.82;;;4.43;;
75700;SDS011;64321;48.796;44.740;2023-08-31T16:04:09;17.90;;;4.93;;
75700;SDS011;64321;48.796;44.740;2023-08-31T16:09:11;19.08;;;5.43;;
75700;SDS011;64321;48.796;44.740;2023-08-31T16:14:13;19.08;;;7.68;;
75700;SDS011;64321;48.796;44.740;2023-08-31T16:19:15;25.30;;;8.10;;
75700;SDS011;64321;48.796;44.740;2023-08-31T16:24:18;21.20;;;6.63;;
75700;SDS011;64321;48.796;44.740;2023-08-31T16:29:20;29.98;;;11.85;;
75700;SDS011;64321;48.796;44.740;2023-08-31T16:34:22;28.15;;;7.95;;
75700;SDS011;64321;48.796;44.740;2023-08-31T16:39:24;27.92;;;10.63;;
75700;SDS011;64321;48.796;44.740;2023-08-31T16:44:26;30.13;;;9.88;;
75700;SDS011;64321;48.796;44.740;2023-08-31T16:49:29;27.17;;;10.95;;
75700;SDS011;64321;48.796;44.740;2023-08-31T16:54:31;28.60;;;10.25;;
75700;SDS011;64321;48.796;44.740;2023-08-31T16:59:33;33.92;;;9.20;;
75700;SDS011;64321;48.796;44.740;2023-08-31T17:04:35;24.13;;;7.15;;
75700;SDS011;64321;48.796;44.740;2023-08-31T17:09:38;21.10;;;7.10;;
75700;SDS011;64321;48.796;44.740;2023-08-31T17:14:40;20.92;;;6.13;;
75700;SDS011;64321;48.796;44.740;2023-08-31T17:19:45;25.95;;;7.15;;
75700;SDS011;64321;48.796;44.740;2023-08-31T17:24:47;20.15;;;7.25;;
75700;SDS011;64321;48.796;44.740;2023-08-31T17:29:49;15.52;;;6.13;;
75700;SDS011;64321;48.796;44.740;2023-08-31T17:34:52;18.40;;;5.03;;
75700;SDS011;64321;48.796;44.740;2023-08-31T17:39:54;19.17;;;4.47;;
75700;SDS011;64321;48.796;44.740;2023-08-31T17:44:56;22.35;;;4.65;;
75700;SDS011;64321;48.796;44.740;2023-08-31T17:49:58;18.95;;;4.95;;
75700;SDS011;64321;48.796;44.740;2023-08-31T17:55:01;22.10;;;4.22;;
75700;SDS011;64321;48.796;44.740;2023-08-31T18:00:05;16.70;;;3.97;;
75700;SDS011;64321;48.796;44.740;2023-08-31T18:05:10;21.60;;;4.90;;
75700;SDS011;64321;48.796;44.740;2023-08-31T18:10:12;15.40;;;6.63;;
75700;SDS011;64321;48.796;44.740;2023-08-31T18:15:14;21.98;;;8.15;;
75700;SDS011;64321;48.796;44.740;2023-08-31T18:20:16;20.00;;;6.50;;
75700;SDS011;64321;48.796;44.740;2023-08-31T18:25:19;20.10;;;6.15;;
75700;SDS011;64321;48.796;44.740;2023-08-31T18:30:21;15.50;;;5.65;;
75700;SDS011;64321;48.796;44.740;2023-08-31T18:35:23;18.92;;;6.47;;
75700;SDS011;64321;48.796;44.740;2023-08-31T18:40:25;22.48;;;6.82;;
75700;SDS011;64321;48.796;44.740;2023-08-31T18:45:27;25.85;;;6.80;;
75700;SDS011;64321;48.796;44.740;2023-08-31T18:50:30;23.50;;;10.63;;
75700;SDS011;64321;48.796;44.740;2023-08-31T18:55:35;24.40;;;7.38;;
75700;SDS011;64321;48.796;44.740;2023-08-31T19:00:37;24.75;;;7.32;;
75700;SDS011;64321;48.796;44.740;2023-08-31T19:05:40;25.05;;;10.98;;
75700;SDS011;64321;48.796;44.740;2023-08-31T19:10:42;23.80;;;8.50;;
75700;SDS011;64321;48.796;44.740;2023-08-31T19:15:44;21.88;;;8.18;;
75700;SDS011;64321;48.796;44.740;2023-08-31T19:20:46;28.85;;;7.35;;
75700;SDS011;64321;48.796;44.740;2023-08-31T19:25:49;25.75;;;8.63;;
75700;SDS011;64321;48.796;44.740;2023-08-31T19:30:51;20.58;;;7.47;;
75700;SDS011;64321;48.796;44.740;2023-08-31T19:35:53;19.45;;;7.13;;
75700;SDS011;64321;48.796;44.740;2023-08-31T19:41:00;20.65;;;6.97;;
75700;SDS011;64321;48.796;44.740;2023-08-31T19:46:02;22.75;;;7.97;;
75700;SDS011;64321;48.796;44.740;2023-08-31T19:51:05;26.83;;;7.03;;
75700;SDS011;64321;48.796;44.740;2023-08-31T19:56:07;22.48;;;6.60;;
75700;SDS011;64321;48.796;44.740;2023-08-31T20:01:10;27.38;;;7.72;;
75700;SDS011;64321;48.796;44.740;2023-08-31T20:06:12;25.10;;;7.63;;
75700;SDS011;64321;48.796;44.740;2023-08-31T20:11:14;21.58;;;6.93;;
75700;SDS011;64321;48.796;44.740;2023-08-31T20:16:17;28.27;;;7.45;;
75700;SDS011;64321;48.796;44.740;2023-08-31T20:21:19;22.92;;;6.72;;
75700;SDS011;64321;48.796;44.740;2023-08-31T20:26:21;21.70;;;5.72;;
75700;SDS011;64321;48.796;44.740;2023-08-31T20:31:23;25.05;;;5.95;;
75700;SDS011;64321;48.796;44.740;2023-08-31T20:36:26;21.55;;;5.50;;
75700;SDS011;64321;48.796;44.740;2023-08-31T20:41:29;23.63;;;5.55;;
75700;SDS011;64321;48.796;44.740;2023-08-31T20:46:34;19.48;;;5.18;;
75700;SDS011;64321;48.796;44.740;2023-08-31T20:51:38;12.27;;;4.72;;
75700;SDS011;64321;48.796;44.740;2023-08-31T20:56:42;15.45;;;5.10;;
75700;SDS011;64321;48.796;44.740;2023-08-31T21:01:45;13.45;;;5.22;;
75700;SDS011;64321;48.796;44.740;2023-08-31T21:06:47;16.20;;;5.32;;
75700;SDS011;64321;48.796;44.740;2023-08-31T21:11:51;14.80;;;4.93;;
75700;SDS011;64321;48.796;44.740;2023-08-31T21:16:53;17.27;;;4.88;;
75700;SDS011;64321;48.796;44.740;2023-08-31T21:21:55;13.15;;;4.10;;
75700;SDS011;64321;48.796;44.740;2023-08-31T21:26:57;16.13;;;4.82;;
75700;SDS011;64321;48.796;44.740;2023-08-31T21:31:59;9.93;;;3.92;;
75700;SDS011;64321;48.796;44.740;2023-08-31T21:37:02;9.52;;;3.60;;
75700;SDS011;64321;48.796;44.740;2023-08-31T21:42:05;15.23;;;4.35;;
75700;SDS011;64321;48.796;44.740;2023-08-31T21:47:07;12.10;;;3.75;;
75700;SDS011;64321;48.796;44.740;2023-08-31T21:52:09;9.90;;;3.55;;
75700;SDS011;64321;48.796;44.740;2023-08-31T21:57:11;10.95;;;3.92;;
75700;SDS011;64321;48.796;44.740;2023-08-31T22:02:14;12.98;;;5.18;;
75700;SDS011;64321;48.796;44.740;2023-08-31T22:07:16;15.95;;;5.28;;
75700;SDS011;64321;48.796;44.740;2023-08-31T22:12:21;13.43;;;5.00;;
75700;SDS011;64321;48.796;44.740;2023-08-31T22:17:24;12.57;;;3.88;;
75700;SDS011;64321;48.796;44.740;2023-08-31T22:22:26;9.65;;;3.60;;
75700;SDS011;64321;48.796;44.740;2023-08-31T22:27:28;9.95;;;3.10;;
75700;SDS011;64321;48.796;44.740;2023-08-31T22:32:31;7.00;;;2.78;;
75700;SDS011;64321;48.796;44.740;2023-08-31T22:37:33;8.50;;;2.50;;
75700;SDS011;64321;48.796;44.740;2023-08-31T22:42:38;5.63;;;2.45;;
75700;SDS011;64321;48.796;44.740;2023-08-31T22:47:41;7.25;;;2.30;;
75700;SDS011;64321;48.796;44.740;2023-08-31T22:52:44;6.18;;;2.20;;
75700;SDS011;64321;48.796;44.740;2023-08-31T22:57:46;4.28;;;1.48;;
75700;SDS011;64321;48.796;44.740;2023-08-31T23:02:49;6.97;;;1.73;;
75700;SDS011;64321;48.796;44.740;2023-08-31T23:07:51;5.78;;;1.65;;
75700;SDS011;64321;48.796;44.740;2023-08-31T23:12:53;4.35;;;1.52;;
75700;SDS011;64321;48.796;44.740;2023-08-31T23:17:55;5.55;;;1.63;;
75700;SDS011;64321;48.796;44.740;2023-08-31T23:22:57;9.73;;;1.90;;
75700;SDS011;64321;48.796;44.740;2023-08-31T23:27:59;4.72;;;1.55;;
75700;SDS011;64321;48.796;44.740;2023-08-31T23:33:02;8.30;;;2.40;;
75700;SDS011;64321;48.796;44.740;2023-08-31T23:38:04;6.55;;;2.08;;
75700;SDS011;64321;48.796;44.740;2023-08-31T23:43:06;6.18;;;2.50;;
75700;SDS011;64321;48.796;44.740;2023-08-31T23:48:09;6.30;;;2.30;;
75700;SDS011;64321;48.796;44.740;2023-08-31T23:53:11;11.90;;;2.45;;
75700;SDS011;64321;48.796;44.740;2023-08-31T23:58:13;6.30;;;2.53;;
